Time;durP1;ratioP1;P1;durP2;ratioP2;P2;SDS_P1;SDS_P2;PMS_P1;PMS_P2;Temp;Humidity;BMP_temperature;BMP_pressure;BME280_temperature;BME280_humidity;BME280_pressure;Samples;Min_cycle;Max_cycle;Signal;HPM_P1;HPM_P2
2023/03/11 00:00:31;;;;;;;17.60;7.95;;;13.70;90.90;;;;;;6245690;23;20008;-78
2023/03/11 00:03:00;;;;;;;11.80;6.00;;;13.70;90.90;;;;;;6246436;23;19997;-78
2023/03/11 00:05:29;;;;;;;8.68;5.93;;;13.70;90.90;;;;;;6246024;23;20411;-78
2023/03/11 00:07:55;;;;;;;14.32;6.93;;;13.70;91.00;;;;;;6246095;23;19997;-77
2023/03/11 00:10:24;;;;;;;14.82;8.52;;;13.60;91.30;;;;;;6245777;23;20008;-78
2023/03/11 00:12:50;;;;;;;12.90;6.22;;;13.40;91.70;;;;;;6246232;23;20008;-78
2023/03/11 00:15:17;;;;;;;15.43;8.30;;;13.40;91.30;;;;;;6245696;23;20035;-77
2023/03/11 00:17:42;;;;;;;14.85;8.02;;;13.30;92.10;;;;;;6246037;23;20433;-78
2023/03/11 00:20:19;;;;;;;13.52;7.43;;;13.20;92.40;;;;;;6245353;23;20008;-78
2023/03/11 00:22:45;;;;;;;15.40;7.13;;;13.30;92.20;;;;;;6246657;23;20358;-78
2023/03/11 00:25:11;;;;;;;15.80;8.02;;;13.40;92.00;;;;;;6245759;23;19996;-78
2023/03/11 00:27:37;;;;;;;16.60;6.25;;;13.40;92.60;;;;;;6245356;23;20000;-78
2023/03/11 00:30:04;;;;;;;17.17;7.03;;;13.40;92.00;;;;;;6245346;23;20070;-78
2023/03/11 00:32:29;;;;;;;14.57;5.40;;;13.40;92.70;;;;;;6245595;23;20027;-79
2023/03/11 00:34:55;;;;;;;9.57;5.40;;;13.50;92.70;;;;;;6245671;23;20008;-80
2023/03/11 00:37:20;;;;;;;9.82;5.40;;;13.50;92.50;;;;;;6245082;23;20042;-79
2023/03/11 00:39:46;;;;;;;11.65;6.28;;;13.60;91.90;;;;;;6244710;23;20004;-79
2023/03/11 00:42:12;;;;;;;12.43;5.82;;;13.70;92.20;;;;;;6245063;23;20094;-79
2023/03/11 00:44:37;;;;;;;14.13;6.07;;;13.70;92.30;;;;;;6245146;23;20007;-79
2023/03/11 00:47:03;;;;;;;13.40;7.80;;;13.70;92.50;;;;;;6245225;23;20326;-79
2023/03/11 00:49:29;;;;;;;7.53;5.40;;;13.60;92.40;;;;;;6244787;23;20496;-79
2023/03/11 00:51:54;;;;;;;10.93;5.53;;;13.70;92.10;;;;;;6245398;23;20023;-79
2023/03/11 00:54:20;;;;;;;10.30;5.55;;;13.70;92.00;;;;;;6245261;23;20008;-80
2023/03/11 00:56:46;;;;;;;9.10;5.57;;;13.80;91.90;;;;;;6245512;23;20015;-79
2023/03/11 00:59:11;;;;;;;10.25;6.03;;;13.80;91.80;;;;;;6244607;23;20008;-79
2023/03/11 01:01:37;;;;;;;9.93;5.97;;;13.90;91.60;;;;;;6244199;23;20000;-79
2023/03/11 01:04:03;;;;;;;9.85;5.72;;;13.90;91.50;;;;;;6245751;23;20289;-80
2023/03/11 01:06:28;;;;;;;8.48;5.50;;;13.90;91.40;;;;;;6245569;23;20003;-79
2023/03/11 01:08:54;;;;;;;10.57;5.85;;;14.00;91.40;;;;;;6243561;23;20001;-79
2023/03/11 01:11:20;;;;;;;9.02;5.68;;;14.00;91.30;;;;;;6245377;23;20075;-79
2023/03/11 01:13:45;;;;;;;9.07;5.65;;;14.10;91.20;;;;;;6245699;23;20006;-80
2023/03/11 01:16:11;;;;;;;12.88;6.30;;;14.10;91.00;;;;;;6245903;23;20434;-80
2023/03/11 01:18:37;;;;;;;11.82;6.68;;;14.10;91.00;;;;;;6218011;23;20000;-79
2023/03/11 01:21:03;;;;;;;11.07;6.35;;;14.10;91.00;;;;;;6243726;23;20075;-80
2023/03/11 01:23:28;;;;;;;10.45;6.85;;;14.10;90.90;;;;;;6245131;23;20000;-80
2023/03/11 01:25:54;;;;;;;15.60;7.13;;;14.10;90.80;;;;;;6245434;23;20024;-79
2023/03/11 01:28:20;;;;;;;11.15;6.65;;;14.10;90.70;;;;;;6244759;23;20412;-79
2023/03/11 01:30:46;;;;;;;10.40;6.47;;;14.10;90.70;;;;;;6218403;23;20111;-79
2023/03/11 01:33:17;;;;;;;10.57;6.30;;;14.00;90.70;;;;;;6244867;23;20007;-79
2023/03/11 01:35:44;;;;;;;9.02;5.70;;;14.00;90.70;;;;;;6245455;23;20000;-79
2023/03/11 01:38:10;;;;;;;11.05;6.35;;;13.90;90.70;;;;;;6245293;23;20000;-79
2023/03/11 01:40:42;;;;;;;10.27;6.32;;;13.90;90.80;;;;;;6244986;23;20055;-79
2023/03/11 01:43:38;;;;;;;13.23;6.90;;;13.90;90.80;;;;;;6245087;23;20072;-79
2023/03/11 01:46:12;;;;;;;11.63;6.93;;;13.90;90.70;;;;;;6243246;23;20019;-79
2023/03/11 01:48:38;;;;;;;8.00;5.60;;;13.90;90.80;;;;;;6245354;23;20004;-79
2023/03/11 01:51:05;;;;;;;13.18;6.40;;;13.90;90.80;;;;;;6244620;23;20059;-79
2023/03/11 01:53:32;;;;;;;9.77;6.57;;;13.90;90.80;;;;;;6245412;23;20004;-80
2023/03/11 01:55:58;;;;;;;13.57;6.68;;;13.90;90.70;;;;;;6247050;23;20422;-80
2023/03/11 01:58:27;;;;;;;11.18;6.82;;;13.90;90.70;;;;;;6246521;23;20008;-80
2023/03/11 02:00:54;;;;;;;11.70;6.03;;;13.90;90.70;;;;;;6247091;23;20066;-80
2023/03/11 02:03:32;;;;;;;10.35;7.30;;;13.90;90.70;;;;;;6247310;23;20003;-79
2023/03/11 02:06:01;;;;;;;10.77;6.72;;;13.80;90.70;;;;;;6247145;23;20023;-80
2023/03/11 02:08:28;;;;;;;13.45;7.00;;;13.80;90.70;;;;;;6220313;23;20103;-79
2023/03/11 02:10:55;;;;;;;11.00;6.70;;;13.70;90.70;;;;;;6246887;23;20046;-80
2023/03/11 02:13:22;;;;;;;12.18;6.82;;;13.70;90.80;;;;;;6247350;23;20008;-80
2023/03/11 02:15:48;;;;;;;11.48;6.50;;;13.70;90.80;;;;;;6247225;23;20005;-80
2023/03/11 02:18:20;;;;;;;10.02;6.65;;;13.70;90.80;;;;;;6247391;23;20034;-80
2023/03/11 02:21:01;;;;;;;12.02;6.80;;;13.70;90.90;;;;;;6219492;23;20032;-80
2023/03/11 02:23:39;;;;;;;14.93;8.07;;;13.70;90.80;;;;;;6246879;23;20004;-81
2023/03/11 02:26:22;;;;;;;8.50;6.60;;;13.60;91.00;;;;;;6246665;23;20362;-81
2023/03/11 02:28:49;;;;;;;7.85;6.47;;;13.60;90.90;;;;;;6247083;23;20000;-80
2023/03/11 02:31:15;;;;;;;12.38;7.18;;;13.50;90.80;;;;;;6246580;23;20042;-81
2023/03/11 02:33:41;;;;;;;13.85;6.38;;;13.50;90.90;;;;;;6247288;23;20004;-81
2023/03/11 02:36:31;;;;;;;12.70;7.32;;;13.50;90.90;;;;;;6247318;23;20004;-81
2023/03/11 02:38:57;;;;;;;11.10;6.65;;;13.50;90.90;;;;;;6247077;23;20081;-81
2023/03/11 02:41:23;;;;;;;11.43;6.85;;;13.50;91.00;;;;;;6246309;23;20032;-81
2023/03/11 02:43:49;;;;;;;13.45;6.93;;;13.50;91.00;;;;;;6247398;23;20415;-81
2023/03/11 02:46:16;;;;;;;9.75;6.60;;;13.50;91.00;;;;;;6246928;23;20054;-81
2023/03/11 02:48:43;;;;;;;11.38;6.45;;;13.50;90.90;;;;;;6247106;23;19996;-81
2023/03/11 02:51:09;;;;;;;11.50;6.93;;;13.40;90.90;;;;;;6246388;23;20004;-81
2023/03/11 02:53:43;;;;;;;14.13;7.82;;;13.40;91.00;;;;;;6245797;23;20038;-80
2023/03/11 02:56:08;;;;;;;11.23;6.95;;;13.30;90.90;;;;;;6246896;23;20490;-82
2023/03/11 02:58:34;;;;;;;10.27;7.32;;;13.30;91.00;;;;;;6246435;23;20060;-82
2023/03/11 03:00:59;;;;;;;14.13;7.95;;;13.30;91.00;;;;;;6219315;23;20008;-81
2023/03/11 03:03:25;;;;;;;13.95;7.60;;;13.30;91.10;;;;;;6246388;23;19996;-81
2023/03/11 03:05:51;;;;;;;12.63;7.72;;;13.20;91.10;;;;;;6246474;23;20000;-80
2023/03/11 03:08:16;;;;;;;14.40;7.20;;;13.20;91.10;;;;;;6220351;23;20035;-81
2023/03/11 03:10:42;;;;;;;13.15;8.15;;;13.10;91.20;;;;;;6246937;23;20000;-80
2023/03/11 03:13:08;;;;;;;12.27;7.97;;;13.10;91.20;;;;;;6246897;23;20382;-80
2023/03/11 03:15:33;;;;;;;11.68;7.90;;;13.10;91.20;;;;;;6247146;23;20105;-80
2023/03/11 03:17:59;;;;;;;11.38;8.13;;;13.10;91.30;;;;;;6246407;23;20380;-80
2023/03/11 03:20:25;;;;;;;18.10;7.85;;;13.00;91.40;;;;;;6246551;23;20004;-80
2023/03/11 03:22:51;;;;;;;13.73;8.20;;;13.00;91.40;;;;;;6246920;23;19996;-81
2023/03/11 03:25:17;;;;;;;14.48;8.00;;;13.00;91.40;;;;;;6246031;23;20007;-80
2023/03/11 03:27:43;;;;;;;10.77;6.95;;;13.00;91.40;;;;;;6246809;23;20000;-80
2023/03/11 03:30:11;;;;;;;13.73;7.63;;;13.00;91.40;;;;;;6245712;23;20000;-79
2023/03/11 03:32:36;;;;;;;14.27;7.82;;;12.90;91.30;;;;;;6246590;23;20000;-80
2023/03/11 03:35:03;;;;;;;14.93;8.60;;;12.90;91.40;;;;;;6246651;23;20062;-79
2023/03/11 03:37:33;;;;;;;16.45;8.43;;;12.90;91.30;;;;;;6246947;23;20007;-79
2023/03/11 03:39:58;;;;;;;12.38;8.02;;;12.90;91.50;;;;;;6246509;23;20027;-78
2023/03/11 03:42:24;;;;;;;14.73;8.30;;;12.80;91.60;;;;;;6246785;23;20347;-78
2023/03/11 03:44:51;;;;;;;12.65;8.40;;;12.80;91.50;;;;;;6246437;23;20000;-78
2023/03/11 03:47:18;;;;;;;13.07;8.38;;;12.90;91.40;;;;;;6246525;23;20010;-78
2023/03/11 03:49:44;;;;;;;12.85;9.02;;;12.80;91.50;;;;;;6246280;23;20010;-78
2023/03/11 03:52:09;;;;;;;15.40;8.98;;;12.90;91.50;;;;;;6246615;23;20395;-79
2023/03/11 03:54:36;;;;;;;15.88;8.85;;;12.80;91.40;;;;;;6246382;23;20008;-79
2023/03/11 03:57:03;;;;;;;15.85;8.32;;;12.80;91.30;;;;;;6246140;23;20126;-79
2023/03/11 03:59:29;;;;;;;11.90;8.15;;;12.80;91.50;;;;;;6246412;23;20034;-79
2023/03/11 04:01:54;;;;;;;13.68;9.13;;;12.80;91.30;;;;;;6246229;23;19996;-79
2023/03/11 04:04:20;;;;;;;12.48;8.10;;;12.80;91.50;;;;;;6246765;23;19996;-78
2023/03/11 04:06:46;;;;;;;11.93;8.05;;;12.80;91.40;;;;;;6246604;23;20000;-78
2023/03/11 04:09:12;;;;;;;12.32;8.18;;;12.80;91.40;;;;;;6247089;23;20366;-78
2023/03/11 04:11:38;;;;;;;12.55;8.25;;;12.80;91.30;;;;;;6245875;23;20096;-78
2023/03/11 04:14:04;;;;;;;11.75;8.20;;;12.80;91.30;;;;;;6244716;23;20007;-80
2023/03/11 04:16:30;;;;;;;13.25;7.88;;;12.80;91.30;;;;;;6246108;23;20034;-80
2023/03/11 04:18:56;;;;;;;14.10;9.23;;;12.80;91.30;;;;;;6246375;23;19996;-79
2023/03/11 04:21:22;;;;;;;11.73;7.63;;;12.80;91.40;;;;;;6245531;23;20004;-80
2023/03/11 04:23:47;;;;;;;12.55;8.00;;;12.70;91.40;;;;;;6219415;23;20004;-80
2023/03/11 04:26:13;;;;;;;10.98;7.53;;;12.80;91.30;;;;;;6246255;23;19996;-80
2023/03/11 04:28:39;;;;;;;12.35;9.77;;;12.80;91.30;;;;;;6246182;23;19996;-79
2023/03/11 04:31:05;;;;;;;13.75;8.35;;;12.60;91.50;;;;;;6245478;23;20075;-78
2023/03/11 04:33:31;;;;;;;12.85;8.70;;;12.60;91.50;;;;;;6218472;23;20095;-78
2023/03/11 04:35:57;;;;;;;17.67;9.13;;;12.60;91.60;;;;;;6246213;23;20000;-78
2023/03/11 04:38:23;;;;;;;11.20;7.63;;;12.50;91.70;;;;;;6246079;23;20008;-80
2023/03/11 04:40:48;;;;;;;13.10;8.77;;;12.50;91.60;;;;;;6245572;23;20359;-79
2023/03/11 04:43:14;;;;;;;14.15;9.10;;;12.50;91.60;;;;;;6245902;23;20043;-80
2023/03/11 04:45:43;;;;;;;12.85;7.78;;;12.50;91.60;;;;;;6246554;23;20075;-80
2023/03/11 04:48:09;;;;;;;12.98;7.72;;;12.50;91.60;;;;;;6246377;23;20028;-80
2023/03/11 04:50:35;;;;;;;12.20;8.68;;;12.60;91.60;;;;;;6218778;23;20008;-80
2023/03/11 04:53:01;;;;;;;12.88;8.15;;;;;;;;;;6245868;23;20026;-79
2023/03/11 04:55:27;;;;;;;15.48;8.60;;;12.60;91.40;;;;;;6246152;23;20004;-80
2023/03/11 04:57:52;;;;;;;15.10;8.50;;;12.50;91.50;;;;;;6245517;23;20434;-79
2023/03/11 05:00:23;;;;;;;14.98;9.35;;;12.50;91.60;;;;;;6245647;23;20054;-79
2023/03/11 05:02:49;;;;;;;11.00;8.25;;;12.60;91.60;;;;;;6246440;23;20084;-79
2023/03/11 05:05:15;;;;;;;15.95;9.27;;;12.60;91.60;;;;;;6246307;23;20023;-78
2023/03/11 05:07:41;;;;;;;11.77;8.65;;;12.60;91.60;;;;;;6245376;23;20049;-78
2023/03/11 05:10:07;;;;;;;16.75;9.50;;;12.60;91.50;;;;;;6245641;23;20071;-79
2023/03/11 05:12:33;;;;;;;13.63;9.73;;;12.60;91.60;;;;;;6245836;23;20004;-80
2023/03/11 05:14:58;;;;;;;12.32;9.45;;;12.60;91.60;;;;;;6245516;23;20366;-80
2023/03/11 05:17:24;;;;;;;13.73;8.63;;;12.60;91.60;;;;;;6245216;23;20410;-79
2023/03/11 05:19:52;;;;;;;14.27;9.13;;;12.50;91.60;;;;;;6243766;23;20296;-78
2023/03/11 05:22:18;;;;;;;14.40;9.50;;;12.50;91.70;;;;;;6245703;23;20075;-78
2023/03/11 05:24:45;;;;;;;20.90;11.05;;;12.50;91.60;;;;;;6245826;23;20004;-78
2023/03/11 05:27:11;;;;;;;19.40;9.90;;;12.40;91.80;;;;;;6218204;23;20027;-78
2023/03/11 05:29:37;;;;;;;17.63;9.85;;;12.40;92.00;;;;;;6245134;23;20430;-77
2023/03/11 05:32:03;;;;;;;20.65;10.23;;;12.40;91.70;;;;;;6243754;23;20008;-78
2023/03/11 05:34:30;;;;;;;16.45;11.13;;;12.40;91.80;;;;;;6243008;23;20008;-78
2023/03/11 05:36:55;;;;;;;15.55;10.25;;;12.40;91.90;;;;;;6244410;23;20529;-79
2023/03/11 05:39:21;;;;;;;15.73;10.65;;;12.50;91.80;;;;;;6244311;23;20083;-79
2023/03/11 05:41:47;;;;;;;16.42;10.25;;;12.50;91.80;;;;;;6244637;23;20071;-80
2023/03/11 05:44:13;;;;;;;11.80;9.15;;;12.50;91.70;;;;;;6244927;23;20373;-79
2023/03/11 05:46:38;;;;;;;14.60;10.00;;;12.50;91.80;;;;;;6244883;23;20003;-79
2023/03/11 05:49:04;;;;;;;15.50;9.77;;;12.30;91.80;;;;;;6244712;23;20008;-79
2023/03/11 05:51:30;;;;;;;14.85;10.73;;;12.40;91.90;;;;;;6244092;23;20000;-80
2023/03/11 05:53:55;;;;;;;16.35;10.38;;;12.30;91.80;;;;;;6244795;23;20005;-79
2023/03/11 05:56:22;;;;;;;15.75;10.52;;;12.30;91.80;;;;;;6242589;23;20000;-79
2023/03/11 05:58:48;;;;;;;14.60;9.98;;;12.30;91.90;;;;;;6244193;23;20284;-79
2023/03/11 06:01:16;;;;;;;14.55;9.90;;;12.30;92.10;;;;;;6243482;23;20054;-78
2023/03/11 06:03:42;;;;;;;16.52;10.20;;;12.30;92.00;;;;;;6242882;23;20071;-79
2023/03/11 06:06:10;;;;;;;15.18;10.43;;;12.30;92.00;;;;;;6243154;23;20403;-79
2023/03/11 06:08:36;;;;;;;17.58;10.70;;;12.40;91.80;;;;;;6245315;23;20415;-81
2023/03/11 06:11:07;;;;;;;17.20;10.30;;;12.30;92.10;;;;;;6245010;23;20016;-81
2023/03/11 06:13:32;;;;;;;16.58;10.63;;;12.40;92.00;;;;;;6245214;23;20005;-85
2023/03/11 06:15:58;;;;;;;16.63;10.30;;;12.40;91.90;;;;;;6245122;23;20000;-83
2023/03/11 06:18:27;;;;;;;19.77;10.68;;;12.40;91.80;;;;;;6245130;23;20008;-82
2023/03/11 06:20:56;;;;;;;15.48;10.48;;;12.50;91.90;;;;;;6245113;23;20038;-82
2023/03/11 06:23:22;;;;;;;16.27;9.88;;;12.50;91.90;;;;;;6245043;23;20054;-77
2023/03/11 06:26:04;;;;;;;18.35;10.43;;;12.60;91.90;;;;;;6245092;23;20083;-77
2023/03/11 06:28:30;;;;;;;15.18;9.82;;;12.60;91.80;;;;;;6245445;23;20007;-76
2023/03/11 06:31:09;;;;;;;17.45;10.20;;;12.60;92.20;;;;;;6245219;23;20004;-75
2023/03/11 06:33:35;;;;;;;15.88;10.15;;;12.70;92.20;;;;;;6245495;23;20027;-84
2023/03/11 06:36:02;;;;;;;17.38;10.70;;;12.90;92.00;;;;;;6217909;23;20535;-76
2023/03/11 06:38:28;;;;;;;15.65;10.07;;;13.00;91.60;;;;;;6244991;23;20046;-77
2023/03/11 06:40:57;;;;;;;14.35;10.63;;;13.10;91.40;;;;;;6245458;23;20000;-76
2023/03/11 06:43:22;;;;;;;16.77;10.88;;;13.10;91.50;;;;;;6246373;23;19996;-77
2023/03/11 06:45:48;;;;;;;18.52;11.13;;;13.10;91.10;;;;;;6246696;23;20000;-77
2023/03/11 06:48:14;;;;;;;14.18;10.40;;;13.10;91.00;;;;;;6246608;23;19997;-77
2023/03/11 06:50:39;;;;;;;15.93;10.77;;;13.10;91.00;;;;;;6246614;23;20000;-77
2023/03/11 06:53:06;;;;;;;15.63;10.65;;;13.10;91.00;;;;;;6245373;23;20012;-78
2023/03/11 06:55:32;;;;;;;15.40;10.40;;;13.10;91.00;;;;;;6244477;23;20011;-78
2023/03/11 06:57:58;;;;;;;14.10;10.57;;;13.10;91.00;;;;;;6246501;23;20014;-79
2023/03/11 07:00:24;;;;;;;14.77;10.30;;;13.20;91.10;;;;;;6246252;23;20087;-83
2023/03/11 07:02:50;;;;;;;13.95;10.45;;;13.20;91.10;;;;;;6245931;23;20011;-79
2023/03/11 07:05:16;;;;;;;15.93;10.30;;;13.20;91.00;;;;;;6244934;23;20426;-78
2023/03/11 07:07:42;;;;;;;18.33;11.07;;;13.20;91.00;;;;;;6246306;23;20031;-78
2023/03/11 07:10:08;;;;;;;13.02;9.65;;;13.30;91.00;;;;;;6246282;23;20000;-78
2023/03/11 07:12:34;;;;;;;16.60;10.23;;;13.30;91.00;;;;;;6247115;23;20418;-78
2023/03/11 07:15:00;;;;;;;14.85;10.40;;;13.30;90.90;;;;;;6246486;23;20019;-79
2023/03/11 07:17:27;;;;;;;16.15;10.20;;;13.30;90.90;;;;;;6219392;23;20008;-78
2023/03/11 07:19:53;;;;;;;16.25;11.25;;;13.30;90.90;;;;;;6246036;23;20480;-78
2023/03/11 07:22:19;;;;;;;14.07;10.07;;;13.40;90.90;;;;;;6247054;23;20067;-79
2023/03/11 07:24:46;;;;;;;14.48;10.73;;;13.50;90.80;;;;;;6247189;23;20036;-79
2023/03/11 07:27:12;;;;;;;14.98;10.23;;;13.50;91.00;;;;;;6246720;23;20004;-79
2023/03/11 07:29:38;;;;;;;18.05;10.55;;;13.50;91.00;;;;;;6246766;23;20084;-79
2023/03/11 07:32:05;;;;;;;14.13;9.48;;;13.60;90.90;;;;;;6246630;23;20004;-80
2023/03/11 07:34:30;;;;;;;13.50;8.88;;;13.70;90.90;;;;;;6244820;23;20016;-79
2023/03/11 07:36:56;;;;;;;17.75;8.95;;;13.70;90.90;;;;;;6246819;23;20455;-79
2023/03/11 07:39:22;;;;;;;12.65;7.85;;;13.80;90.80;;;;;;6246816;23;20086;-79
2023/03/11 07:41:47;;;;;;;11.80;7.03;;;13.90;90.70;;;;;;6246474;23;20075;-79
2023/03/11 07:44:14;;;;;;;16.10;8.13;;;13.90;90.60;;;;;;6246727;23;19997;-79
2023/03/11 07:46:40;;;;;;;13.93;7.03;;;13.90;90.20;;;;;;6219390;23;20004;-80
2023/03/11 07:49:06;;;;;;;14.35;7.57;;;13.90;90.40;;;;;;6246134;23;20296;-79
2023/03/11 07:51:36;;;;;;;13.80;7.20;;;13.90;90.20;;;;;;6246379;23;19993;-79
2023/03/11 07:54:02;;;;;;;12.65;7.32;;;14.00;90.30;;;;;;6219634;23;20469;-85
2023/03/11 07:56:31;;;;;;;11.23;7.20;;;14.10;90.20;;;;;;6246709;23;20106;-86
2023/03/11 07:58:58;;;;;;;14.43;6.63;;;14.20;90.20;;;;;;6246171;23;20068;-85
2023/03/11 08:01:26;;;;;;;14.45;7.28;;;14.30;90.00;;;;;;6246542;23;20004;-86
2023/03/11 08:03:57;;;;;;;14.10;6.97;;;14.40;90.00;;;;;;6246962;23;20011;-85
2023/03/11 08:06:30;;;;;;;14.30;7.40;;;14.50;89.60;;;;;;6246707;23;20410;-86
2023/03/11 08:08:56;;;;;;;14.23;6.32;;;14.60;89.20;;;;;;6246472;23;20011;-86
2023/03/11 08:11:22;;;;;;;15.40;7.78;;;14.70;89.00;;;;;;6246853;23;20004;-86
2023/03/11 08:13:49;;;;;;;12.20;6.25;;;14.80;88.20;;;;;;6246378;23;20109;-86
2023/03/11 08:16:17;;;;;;;12.50;6.45;;;15.00;88.00;;;;;;6246737;23;20026;-85
2023/03/11 08:18:44;;;;;;;16.40;6.40;;;15.10;87.40;;;;;;6220035;23;20047;-85
2023/03/11 08:21:15;;;;;;;12.35;6.05;;;15.10;86.50;;;;;;6246628;23;20050;-86
2023/03/11 08:23:42;;;;;;;11.48;5.65;;;15.10;86.70;;;;;;6246456;23;20000;-86
2023/03/11 08:26:10;;;;;;;14.38;6.10;;;15.20;86.40;;;;;;6246600;23;20004;-85
2023/03/11 08:28:37;;;;;;;12.50;5.65;;;15.20;86.00;;;;;;6246097;23;20000;-86
2023/03/11 08:31:11;;;;;;;10.63;5.20;;;15.20;85.50;;;;;;6244805;23;20011;-87
2023/03/11 08:33:36;;;;;;;9.70;4.10;;;15.30;85.60;;;;;;6217523;23;20023;-87
2023/03/11 08:36:02;;;;;;;11.57;5.90;;;15.30;85.70;;;;;;6245496;23;20008;-86
2023/03/11 08:38:28;;;;;;;11.10;5.03;;;15.50;86.70;;;;;;6245545;23;20102;-84
2023/03/11 08:40:53;;;;;;;14.95;4.72;;;15.50;84.80;;;;;;6245833;23;20027;-84
2023/03/11 08:43:19;;;;;;;13.30;5.80;;;15.50;84.80;;;;;;6243819;23;20004;-79
2023/03/11 08:45:45;;;;;;;11.52;5.97;;;15.60;85.20;;;;;;6218278;23;20423;-78
2023/03/11 08:48:11;;;;;;;11.32;5.60;;;15.60;83.80;;;;;;6245078;23;20003;-85
2023/03/11 08:50:40;;;;;;;9.63;4.63;;;15.60;84.00;;;;;;6242230;23;20011;-84
2023/03/11 08:53:07;;;;;;;11.80;5.70;;;15.60;84.50;;;;;;6218533;23;20012;-86
2023/03/11 08:55:33;;;;;;;10.13;5.22;;;15.70;83.70;;;;;;6244134;23;20087;-83
2023/03/11 08:57:59;;;;;;;13.13;5.95;;;15.70;84.00;;;;;;6244660;23;20380;-83
2023/03/11 09:00:25;;;;;;;13.30;6.13;;;15.70;83.50;;;;;;6245005;23;20081;-84
2023/03/11 09:02:50;;;;;;;15.20;7.38;;;15.80;82.70;;;;;;6243419;23;20000;-84
2023/03/11 09:05:16;;;;;;;10.82;5.43;;;15.80;82.60;;;;;;6218388;23;20000;-83
2023/03/11 09:07:42;;;;;;;15.40;6.40;;;15.90;82.50;;;;;;6242262;23;20007;-83
2023/03/11 09:10:15;;;;;;;16.17;5.43;;;15.90;83.00;;;;;;6244244;23;20004;-84
2023/03/11 09:12:41;;;;;;;11.13;4.95;;;16.00;82.80;;;;;;6244633;23;20054;-83
2023/03/11 09:15:07;;;;;;;9.90;4.95;;;16.00;82.70;;;;;;6244226;23;20004;-85
2023/03/11 09:17:33;;;;;;;10.40;5.55;;;16.40;81.80;;;;;;6241677;23;20008;-84
2023/03/11 09:19:59;;;;;;;9.40;4.88;;;16.40;82.50;;;;;;6244663;23;20079;-84
2023/03/11 09:22:25;;;;;;;17.05;7.05;;;16.50;81.70;;;;;;6245708;23;20078;-86
2023/03/11 09:24:50;;;;;;;10.52;5.28;;;16.50;81.00;;;;;;6218189;23;20053;-82
2023/03/11 09:27:16;;;;;;;15.40;6.32;;;16.60;81.50;;;;;;6245669;23;20076;-87
2023/03/11 09:29:42;;;;;;;13.32;6.05;;;16.70;81.30;;;;;;6245285;23;20436;-82
2023/03/11 09:32:11;;;;;;;11.93;5.50;;;16.80;81.40;;;;;;6245090;23;20007;-85
2023/03/11 09:34:36;;;;;;;13.75;5.57;;;17.10;80.90;;;;;;6246227;23;20004;-91
2023/03/11 09:37:02;;;;;;;15.57;5.70;;;17.30;80.80;;;;;;6245516;23;20010;-92
2023/03/11 09:39:28;;;;;;;13.10;6.47;;;17.60;79.70;;;;;;6219788;23;20038;-91
2023/03/11 09:42:02;;;;;;;12.20;5.97;;;17.80;79.80;;;;;;6246983;23;19997;-90
2023/03/11 09:44:50;;;;;;;11.18;6.43;;;18.00;79.20;;;;;;6218517;23;20004;-86
2023/03/11 09:47:37;;;;;;;14.27;7.45;;;18.10;78.30;;;;;;6244359;23;20050;-85
2023/03/11 09:50:05;;;;;;;15.18;6.65;;;18.30;78.00;;;;;;6245769;23;20415;-88
2023/03/11 09:53:12;;;;;;;13.20;7.28;;;18.50;77.90;;;;;;6245491;23;20000;-88
2023/03/11 09:55:57;;;;;;;16.85;7.75;;;18.70;77.40;;;;;;6245508;23;20004;-84
2023/03/11 09:58:55;;;;;;;28.27;9.82;;;18.90;76.60;;;;;;6213798;23;20013;-89
2023/03/11 10:01:41;;;;;;;15.32;8.95;;;19.10;75.60;;;;;;6215330;23;20004;-83
2023/03/11 10:04:09;;;;;;;17.13;10.20;;;19.20;75.60;;;;;;6214984;23;20423;-84
2023/03/11 10:06:36;;;;;;;24.20;12.90;;;19.30;75.00;;;;;;6214412;23;20076;-91
2023/03/11 10:09:11;;;;;;;20.98;9.25;;;19.40;74.00;;;;;;6215702;23;20428;-86
2023/03/11 10:12:10;;;;;;;13.98;7.15;;;19.50;74.70;;;;;;6215037;23;20004;-86
2023/03/11 10:14:46;;;;;;;11.90;8.88;;;19.60;75.60;;;;;;6214636;23;19997;-82
2023/03/11 10:17:35;;;;;;;13.30;9.20;;;19.60;75.50;;;;;;6216149;23;20008;-85
2023/03/11 10:20:13;;;;;;;18.08;9.85;;;19.60;75.50;;;;;;6159844;23;20004;-84
2023/03/11 10:23:43;;;;;;;15.65;9.25;;;19.70;75.70;;;;;;6216660;23;20419;-86
2023/03/11 10:26:17;;;;;;;12.20;8.38;;;19.90;75.60;;;;;;6096167;23;20002;-87
2023/03/11 10:29:09;;;;;;;16.25;8.88;;;20.20;74.90;;;;;;6096138;23;20033;-86
2023/03/11 10:32:05;;;;;;;18.30;9.68;;;20.20;75.30;;;;;;6153941;23;20166;-85
2023/03/11 10:34:48;;;;;;;17.70;9.73;;;20.30;74.60;;;;;;6204652;23;20062;-87
2023/03/11 10:37:23;;;;;;;18.67;11.45;;;20.40;74.30;;;;;;6216078;23;20001;-83
2023/03/11 10:39:49;;;;;;;21.08;11.60;;;20.40;74.30;;;;;;6216097;23;20027;-84
2023/03/11 10:42:23;;;;;;;22.08;12.93;;;20.40;74.10;;;;;;6216507;23;20400;-88
2023/03/11 10:44:49;;;;;;;19.55;11.93;;;20.20;73.70;;;;;;6217228;23;20024;-89
2023/03/11 10:47:21;;;;;;;17.88;11.75;;;20.20;74.20;;;;;;6216009;23;20304;-83
2023/03/11 10:49:47;;;;;;;19.13;13.20;;;20.20;74.20;;;;;;6214347;23;20422;-83
2023/03/11 10:52:13;;;;;;;22.85;12.77;;;20.20;74.10;;;;;;6215005;23;20032;-83
2023/03/11 10:54:44;;;;;;;19.35;13.18;;;20.20;74.20;;;;;;6215927;23;20005;-77
2023/03/11 10:57:32;;;;;;;19.60;13.43;;;20.20;74.20;;;;;;6209919;23;20012;-78
2023/03/11 11:00:00;;;;;;;21.20;14.10;;;20.20;74.30;;;;;;6215954;23;20032;-77
2023/03/11 11:02:36;;;;;;;19.40;13.20;;;20.10;74.40;;;;;;6216214;23;20005;-78
2023/03/11 11:05:16;;;;;;;17.83;13.93;;;20.10;74.30;;;;;;6214673;23;19996;-75
2023/03/11 11:07:43;;;;;;;18.33;13.73;;;20.10;74.70;;;;;;6215359;23;20368;-75
2023/03/11 11:10:26;;;;;;;20.98;13.85;;;20.10;74.80;;;;;;6212294;23;20362;-75
2023/03/11 11:13:11;;;;;;;21.20;14.65;;;20.10;74.40;;;;;;6214998;23;20069;-75
2023/03/11 11:15:40;;;;;;;19.63;12.82;;;19.80;73.00;;;;;;6216311;23;20024;-75
2023/03/11 11:18:26;;;;;;;16.15;11.90;;;19.90;73.50;;;;;;6215742;23;20083;-75
2023/03/11 11:20:52;;;;;;;19.38;12.15;;;19.80;73.80;;;;;;6216041;23;20001;-75
2023/03/11 11:23:44;;;;;;;24.67;13.85;;;19.90;73.90;;;;;;6215252;23;19997;-75
2023/03/11 11:26:22;;;;;;;16.63;12.35;;;19.90;73.80;;;;;;6208372;23;20438;-75
2023/03/11 11:29:14;;;;;;;22.08;13.77;;;19.90;73.60;;;;;;6214452;23;20071;-75
2023/03/11 11:31:43;;;;;;;19.42;12.52;;;19.90;73.30;;;;;;6205578;23;20031;-75
2023/03/11 11:34:26;;;;;;;18.20;12.23;;;19.90;73.20;;;;;;6215593;23;20004;-75
2023/03/11 11:36:53;;;;;;;17.25;12.27;;;19.90;73.30;;;;;;6214959;23;20431;-75
2023/03/11 11:39:20;;;;;;;18.80;11.40;;;19.90;73.80;;;;;;6215793;23;20423;-75
2023/03/11 11:41:48;;;;;;;18.05;10.98;;;20.00;73.80;;;;;;6215671;23;20062;-75
2023/03/11 11:44:19;;;;;;;18.00;10.48;;;20.10;73.30;;;;;;6214217;23;20004;-75
2023/03/11 11:47:04;;;;;;;17.98;10.52;;;20.10;73.20;;;;;;6215408;23;20001;-75
2023/03/11 11:49:33;;;;;;;17.98;11.52;;;20.50;73.00;;;;;;6216216;23;20122;-75
2023/03/11 11:52:20;;;;;;;20.15;12.73;;;20.60;72.20;;;;;;6215189;23;20000;-75
2023/03/11 11:55:01;;;;;;;19.50;13.20;;;20.70;72.30;;;;;;6214636;23;20475;-75
2023/03/11 11:57:27;;;;;;;22.42;13.93;;;20.80;72.50;;;;;;6227708;23;20102;-75
2023/03/11 11:59:52;;;;;;;22.40;15.80;;;20.80;73.00;;;;;;6246218;23;20031;-75
2023/03/11 12:02:27;;;;;;;16.73;13.00;;;21.00;72.70;;;;;;6245920;23;20042;-75
2023/03/11 12:05:18;;;;;;;20.98;14.25;;;21.50;72.10;;;;;;6245672;23;20000;-76
2023/03/11 12:08:05;;;;;;;18.13;14.30;;;21.90;70.90;;;;;;6245346;23;20307;-76
2023/03/11 12:10:40;;;;;;;19.10;13.13;;;22.60;69.50;;;;;;6245322;23;20054;-75
2023/03/11 12:13:24;;;;;;;26.10;14.55;;;23.50;66.90;;;;;;6246281;23;20083;-76
2023/03/11 12:16:02;;;;;;;16.98;12.70;;;24.30;66.30;;;;;;6243396;23;20515;-76
2023/03/11 12:18:43;;;;;;;17.63;13.10;;;25.10;64.70;;;;;;6245684;23;20111;-75
2023/03/11 12:21:36;;;;;;;21.33;14.95;;;25.80;63.00;;;;;;6244758;23;20004;-76
2023/03/11 12:24:28;;;;;;;18.42;13.95;;;26.30;61.30;;;;;;6244324;23;20050;-76
2023/03/11 12:26:58;;;;;;;18.23;13.55;;;26.70;60.60;;;;;;6244433;23;20007;-78
2023/03/11 12:29:27;;;;;;;19.90;15.05;;;27.00;60.30;;;;;;6245097;23;20006;-78
2023/03/11 12:31:55;;;;;;;25.40;16.08;;;27.00;59.60;;;;;;6243638;23;20004;-80
2023/03/11 12:34:23;;;;;;;20.48;15.40;;;26.90;59.50;;;;;;6244434;23;19996;-77
2023/03/11 12:36:51;;;;;;;19.55;15.77;;;26.50;59.30;;;;;;6244931;23;20004;-78
2023/03/11 12:39:22;;;;;;;21.90;16.85;;;26.40;59.70;;;;;;6245343;23;20562;-78
2023/03/11 12:41:48;;;;;;;23.90;17.52;;;26.60;60.00;;;;;;6244819;23;20004;-76
2023/03/11 12:44:27;;;;;;;23.48;19.05;;;26.60;59.40;;;;;;6245974;23;20382;-80
2023/03/11 12:46:53;;;;;;;24.85;17.17;;;26.50;58.40;;;;;;6218785;23;20123;-81